sensor_id;sensor_type;location;lat;lon;timestamp;temperature;humidity
29345;DHT22;16339;48.748;2.222;2024-03-02T00:01:52;10.30;99.90
29345;DHT22;16339;48.748;2.222;2024-03-02T00:04:23;10.30;99.90
29345;DHT22;16339;48.748;2.222;2024-03-02T00:06:54;10.40;99.90
29345;DHT22;16339;48.748;2.222;2024-03-02T00:09:23;10.40;99.90
29345;DHT22;16339;48.748;2.222;2024-03-02T00:11:52;10.50;99.90
29345;DHT22;16339;48.748;2.222;2024-03-02T00:14:23;10.50;99.90
29345;DHT22;16339;48.748;2.222;2024-03-02T00:16:54;10.50;99.90
29345;DHT22;16339;48.748;2.222;2024-03-02T00:19:30;10.50;99.90
29345;DHT22;16339;48.748;2.222;2024-03-02T00:22:04;10.50;99.90
29345;DHT22;16339;48.748;2.222;2024-03-02T00:24:34;10.50;99.90
29345;DHT22;16339;48.748;2.222;2024-03-02T00:27:04;10.50;99.90
29345;DHT22;16339;48.748;2.222;2024-03-02T00:29:37;10.50;99.90
29345;DHT22;16339;48.748;2.222;2024-03-02T00:32:10;10.50;99.90
29345;DHT22;16339;48.748;2.222;2024-03-02T00:34:41;10.50;99.90
29345;DHT22;16339;48.748;2.222;2024-03-02T00:37:12;10.50;99.90
29345;DHT22;16339;48.748;2.222;2024-03-02T00:39:42;10.30;99.90
29345;DHT22;16339;48.748;2.222;2024-03-02T00:42:12;10.30;99.90
29345;DHT22;16339;48.748;2.222;2024-03-02T00:44:40;10.40;99.90
29345;DHT22;16339;48.748;2.222;2024-03-02T00:47:09;10.40;99.90
29345;DHT22;16339;48.748;2.222;2024-03-02T00:49:40;10.40;99.90
29345;DHT22;16339;48.748;2.222;2024-03-02T00:52:16;10.40;99.90
29345;DHT22;16339;48.748;2.222;2024-03-02T00:54:45;10.40;99.90
29345;DHT22;16339;48.748;2.222;2024-03-02T00:57:14;10.40;99.90
29345;DHT22;16339;48.748;2.222;2024-03-02T00:59:43;10.40;99.90
29345;DHT22;16339;48.748;2.222;2024-03-02T01:02:13;10.40;99.90
29345;DHT22;16339;48.748;2.222;2024-03-02T01:04:42;10.40;99.90
29345;DHT22;16339;48.748;2.222;2024-03-02T01:07:16;10.40;99.90
29345;DHT22;16339;48.748;2.222;2024-03-02T01:09:45;10.40;99.90
29345;DHT22;16339;48.748;2.222;2024-03-02T01:12:15;10.40;99.90
29345;DHT22;16339;48.748;2.222;2024-03-02T01:14:44;10.40;99.90
29345;DHT22;16339;48.748;2.222;2024-03-02T01:17:14;10.40;99.90
29345;DHT22;16339;48.748;2.222;2024-03-02T01:19:43;10.40;99.90
29345;DHT22;16339;48.748;2.222;2024-03-02T01:22:16;10.40;99.90
29345;DHT22;16339;48.748;2.222;2024-03-02T01:24:50;10.50;99.90
29345;DHT22;16339;48.748;2.222;2024-03-02T01:27:20;10.60;99.90
29345;DHT22;16339;48.748;2.222;2024-03-02T01:29:49;10.60;99.90
29345;DHT22;16339;48.748;2.222;2024-03-02T01:32:19;10.60;99.90
29345;DHT22;16339;48.748;2.222;2024-03-02T01:34:47;10.60;99.90
29345;DHT22;16339;48.748;2.222;2024-03-02T01:37:19;10.60;99.90
29345;DHT22;16339;48.748;2.222;2024-03-02T01:39:47;10.70;99.90
29345;DHT22;16339;48.748;2.222;2024-03-02T01:42:16;10.60;99.90
29345;DHT22;16339;48.748;2.222;2024-03-02T01:44:45;10.60;99.90
29345;DHT22;16339;48.748;2.222;2024-03-02T01:47:13;10.60;99.90
29345;DHT22;16339;48.748;2.222;2024-03-02T01:49:42;10.60;99.90
29345;DHT22;16339;48.748;2.222;2024-03-02T01:52:11;10.50;99.90
29345;DHT22;16339;48.748;2.222;2024-03-02T01:54:42;10.40;99.90
29345;DHT22;16339;48.748;2.222;2024-03-02T01:57:11;10.40;99.90
29345;DHT22;16339;48.748;2.222;2024-03-02T01:59:40;10.40;99.90
29345;DHT22;16339;48.748;2.222;2024-03-02T02:02:09;10.40;99.90
29345;DHT22;16339;48.748;2.222;2024-03-02T02:04:37;10.40;99.90
29345;DHT22;16339;48.748;2.222;2024-03-02T02:07:06;10.40;99.90
29345;DHT22;16339;48.748;2.222;2024-03-02T02:09:35;10.40;99.90
29345;DHT22;16339;48.748;2.222;2024-03-02T02:12:07;10.30;99.90
29345;DHT22;16339;48.748;2.222;2024-03-02T02:14:37;10.30;99.90
29345;DHT22;16339;48.748;2.222;2024-03-02T02:17:08;10.30;99.90
29345;DHT22;16339;48.748;2.222;2024-03-02T02:19:37;10.30;99.90
29345;DHT22;16339;48.748;2.222;2024-03-02T02:22:11;10.30;99.90
29345;DHT22;16339;48.748;2.222;2024-03-02T02:24:40;10.30;99.90
29345;DHT22;16339;48.748;2.222;2024-03-02T02:27:09;10.30;99.90
29345;DHT22;16339;48.748;2.222;2024-03-02T02:29:41;10.30;99.90
29345;DHT22;16339;48.748;2.222;2024-03-02T02:32:09;10.20;99.90
29345;DHT22;16339;48.748;2.222;2024-03-02T02:34:38;10.20;99.90
29345;DHT22;16339;48.748;2.222;2024-03-02T02:37:07;10.10;99.90
29345;DHT22;16339;48.748;2.222;2024-03-02T02:39:38;10.10;99.90
29345;DHT22;16339;48.748;2.222;2024-03-02T02:42:07;10.10;99.90
29345;DHT22;16339;48.748;2.222;2024-03-02T02:44:36;10.10;99.90
29345;DHT22;16339;48.748;2.222;2024-03-02T02:47:05;10.10;99.90
29345;DHT22;16339;48.748;2.222;2024-03-02T02:49:35;10.10;99.90
29345;DHT22;16339;48.748;2.222;2024-03-02T02:52:04;10.10;99.90
29345;DHT22;16339;48.748;2.222;2024-03-02T02:54:32;10.10;99.90
29345;DHT22;16339;48.748;2.222;2024-03-02T02:57:04;10.10;99.90
29345;DHT22;16339;48.748;2.222;2024-03-02T02:59:35;10.10;99.90
29345;DHT22;16339;48.748;2.222;2024-03-02T03:02:06;10.20;99.90
29345;DHT22;16339;48.748;2.222;2024-03-02T03:04:35;10.10;99.90
29345;DHT22;16339;48.748;2.222;2024-03-02T03:07:07;10.10;99.90
29345;DHT22;16339;48.748;2.222;2024-03-02T03:09:37;10.10;99.90
29345;DHT22;16339;48.748;2.222;2024-03-02T03:12:10;10.10;99.90
29345;DHT22;16339;48.748;2.222;2024-03-02T03:14:41;10.10;99.90
29345;DHT22;16339;48.748;2.222;2024-03-02T03:17:10;10.10;99.90
29345;DHT22;16339;48.748;2.222;2024-03-02T03:19:38;10.10;99.90
29345;DHT22;16339;48.748;2.222;2024-03-02T03:22:07;10.10;99.90
29345;DHT22;16339;48.748;2.222;2024-03-02T03:24:37;10.10;99.90
29345;DHT22;16339;48.748;2.222;2024-03-02T03:27:08;10.10;99.90
29345;DHT22;16339;48.748;2.222;2024-03-02T03:29:37;10.10;99.90
29345;DHT22;16339;48.748;2.222;2024-03-02T03:32:07;10.00;99.90
29345;DHT22;16339;48.748;2.222;2024-03-02T03:34:36;10.00;99.90
29345;DHT22;16339;48.748;2.222;2024-03-02T03:37:08;10.00;99.90
29345;DHT22;16339;48.748;2.222;2024-03-02T03:39:37;10.10;99.90
29345;DHT22;16339;48.748;2.222;2024-03-02T03:42:08;10.10;99.90
29345;DHT22;16339;48.748;2.222;2024-03-02T03:44:37;10.10;99.90
29345;DHT22;16339;48.748;2.222;2024-03-02T03:47:07;10.10;99.90
29345;DHT22;16339;48.748;2.222;2024-03-02T03:49:36;10.00;99.90
29345;DHT22;16339;48.748;2.222;2024-03-02T03:52:05;10.00;99.90
29345;DHT22;16339;48.748;2.222;2024-03-02T03:54:34;10.00;99.90
29345;DHT22;16339;48.748;2.222;2024-03-02T03:57:04;9.90;99.90
29345;DHT22;16339;48.748;2.222;2024-03-02T03:59:35;9.90;99.90
29345;DHT22;16339;48.748;2.222;2024-03-02T04:02:05;9.90;99.90
29345;DHT22;16339;48.748;2.222;2024-03-02T04:04:34;9.90;99.90
29345;DHT22;16339;48.748;2.222;2024-03-02T04:07:03;9.80;99.90
29345;DHT22;16339;48.748;2.222;2024-03-02T04:09:31;9.90;99.90
29345;DHT22;16339;48.748;2.222;2024-03-02T04:12:00;9.80;99.90
29345;DHT22;16339;48.748;2.222;2024-03-02T04:14:29;9.80;99.90
29345;DHT22;16339;48.748;2.222;2024-03-02T04:17:00;9.80;99.90
29345;DHT22;16339;48.748;2.222;2024-03-02T04:19:29;9.80;99.90
29345;DHT22;16339;48.748;2.222;2024-03-02T04:21:57;9.80;99.90
29345;DHT22;16339;48.748;2.222;2024-03-02T04:24:26;9.80;99.90
29345;DHT22;16339;48.748;2.222;2024-03-02T04:26:56;9.80;99.90
29345;DHT22;16339;48.748;2.222;2024-03-02T04:29:25;9.80;99.90
29345;DHT22;16339;48.748;2.222;2024-03-02T04:31:54;9.70;99.90
29345;DHT22;16339;48.748;2.222;2024-03-02T04:34:28;9.70;99.90
29345;DHT22;16339;48.748;2.222;2024-03-02T04:37:06;9.70;99.90
29345;DHT22;16339;48.748;2.222;2024-03-02T04:42:26;9.70;99.90
29345;DHT22;16339;48.748;2.222;2024-03-02T04:45:02;9.70;99.90
29345;DHT22;16339;48.748;2.222;2024-03-02T04:47:52;9.70;99.90
29345;DHT22;16339;48.748;2.222;2024-03-02T04:50:44;9.60;99.90
29345;DHT22;16339;48.748;2.222;2024-03-02T04:53:21;9.70;99.90
29345;DHT22;16339;48.748;2.222;2024-03-02T04:56:07;9.60;99.90
29345;DHT22;16339;48.748;2.222;2024-03-02T05:05:38;9.60;99.90
29345;DHT22;16339;48.748;2.222;2024-03-02T05:08:30;9.70;99.90
29345;DHT22;16339;48.748;2.222;2024-03-02T05:11:27;9.60;99.90
29345;DHT22;16339;48.748;2.222;2024-03-02T05:14:08;9.60;99.90
29345;DHT22;16339;48.748;2.222;2024-03-02T05:16:38;9.60;99.90
29345;DHT22;16339;48.748;2.222;2024-03-02T05:19:07;9.70;99.90
29345;DHT22;16339;48.748;2.222;2024-03-02T05:21:38;9.70;99.90
29345;DHT22;16339;48.748;2.222;2024-03-02T05:24:07;9.70;99.90
29345;DHT22;16339;48.748;2.222;2024-03-02T05:26:36;9.70;99.90
29345;DHT22;16339;48.748;2.222;2024-03-02T05:29:05;9.70;99.90
29345;DHT22;16339;48.748;2.222;2024-03-02T05:31:33;9.70;99.90
29345;DHT22;16339;48.748;2.222;2024-03-02T05:34:02;9.70;99.90
29345;DHT22;16339;48.748;2.222;2024-03-02T05:36:31;9.70;99.90
29345;DHT22;16339;48.748;2.222;2024-03-02T05:39:05;9.70;99.90
29345;DHT22;16339;48.748;2.222;2024-03-02T05:41:36;9.70;99.90
29345;DHT22;16339;48.748;2.222;2024-03-02T05:44:05;9.70;99.90
29345;DHT22;16339;48.748;2.222;2024-03-02T05:46:33;9.60;99.90
29345;DHT22;16339;48.748;2.222;2024-03-02T05:49:02;9.70;99.90
29345;DHT22;16339;48.748;2.222;2024-03-02T05:51:31;9.70;99.90
29345;DHT22;16339;48.748;2.222;2024-03-02T05:54:07;9.70;99.90
29345;DHT22;16339;48.748;2.222;2024-03-02T05:56:36;9.70;99.90
29345;DHT22;16339;48.748;2.222;2024-03-02T05:59:06;9.80;99.90
29345;DHT22;16339;48.748;2.222;2024-03-02T06:01:43;9.70;99.90
29345;DHT22;16339;48.748;2.222;2024-03-02T06:04:14;9.80;99.90
29345;DHT22;16339;48.748;2.222;2024-03-02T06:06:43;9.70;99.90
29345;DHT22;16339;48.748;2.222;2024-03-02T06:09:15;9.80;99.90
29345;DHT22;16339;48.748;2.222;2024-03-02T06:11:59;9.70;99.90
29345;DHT22;16339;48.748;2.222;2024-03-02T06:14:39;9.90;99.90
29345;DHT22;16339;48.748;2.222;2024-03-02T06:17:27;9.90;99.90
29345;DHT22;16339;48.748;2.222;2024-03-02T06:20:08;9.90;99.90
29345;DHT22;16339;48.748;2.222;2024-03-02T06:22:39;9.80;99.90
29345;DHT22;16339;48.748;2.222;2024-03-02T06:25:12;9.90;99.90
29345;DHT22;16339;48.748;2.222;2024-03-02T06:27:40;9.90;99.90
29345;DHT22;16339;48.748;2.222;2024-03-02T06:30:11;9.90;99.90
29345;DHT22;16339;48.748;2.222;2024-03-02T06:32:40;10.00;99.90
29345;DHT22;16339;48.748;2.222;2024-03-02T06:35:08;10.00;99.90
29345;DHT22;16339;48.748;2.222;2024-03-02T06:37:38;10.00;99.90
29345;DHT22;16339;48.748;2.222;2024-03-02T06:40:15;10.10;99.90
29345;DHT22;16339;48.748;2.222;2024-03-02T06:42:45;10.00;99.90
29345;DHT22;16339;48.748;2.222;2024-03-02T06:45:15;10.00;99.90
29345;DHT22;16339;48.748;2.222;2024-03-02T06:47:44;10.00;99.90
29345;DHT22;16339;48.748;2.222;2024-03-02T06:50:13;10.00;99.90
29345;DHT22;16339;48.748;2.222;2024-03-02T06:52:41;10.00;99.90
29345;DHT22;16339;48.748;2.222;2024-03-02T06:55:15;10.10;99.90
29345;DHT22;16339;48.748;2.222;2024-03-02T06:57:46;10.00;99.90
29345;DHT22;16339;48.748;2.222;2024-03-02T07:00:21;10.10;99.90
29345;DHT22;16339;48.748;2.222;2024-03-02T07:02:52;10.10;99.90
29345;DHT22;16339;48.748;2.222;2024-03-02T07:05:24;10.10;99.90
29345;DHT22;16339;48.748;2.222;2024-03-02T07:08:04;10.10;99.90
29345;DHT22;16339;48.748;2.222;2024-03-02T07:10:47;10.20;99.90
29345;DHT22;16339;48.748;2.222;2024-03-02T07:13:23;10.20;99.90
29345;DHT22;16339;48.748;2.222;2024-03-02T07:16:07;10.20;99.90
29345;DHT22;16339;48.748;2.222;2024-03-02T07:19:00;10.20;99.90
29345;DHT22;16339;48.748;2.222;2024-03-02T07:21:37;10.30;99.90
29345;DHT22;16339;48.748;2.222;2024-03-02T07:24:13;10.30;99.90
29345;DHT22;16339;48.748;2.222;2024-03-02T07:26:45;10.40;99.90
29345;DHT22;16339;48.748;2.222;2024-03-02T07:29:20;10.40;99.90
29345;DHT22;16339;48.748;2.222;2024-03-02T07:31:50;10.30;99.90
29345;DHT22;16339;48.748;2.222;2024-03-02T07:34:21;10.40;99.90
29345;DHT22;16339;48.748;2.222;2024-03-02T07:36:50;10.40;99.90
29345;DHT22;16339;48.748;2.222;2024-03-02T07:39:19;10.50;99.90
29345;DHT22;16339;48.748;2.222;2024-03-02T07:41:54;10.60;99.90
29345;DHT22;16339;48.748;2.222;2024-03-02T07:44:22;10.50;99.90
29345;DHT22;16339;48.748;2.222;2024-03-02T07:46:51;10.60;99.90
29345;DHT22;16339;48.748;2.222;2024-03-02T07:49:20;10.60;99.90
29345;DHT22;16339;48.748;2.222;2024-03-02T07:51:49;10.70;99.90
29345;DHT22;16339;48.748;2.222;2024-03-02T07:54:31;10.70;99.90
29345;DHT22;16339;48.748;2.222;2024-03-02T07:57:05;10.80;99.90
29345;DHT22;16339;48.748;2.222;2024-03-02T07:59:34;10.90;99.90
29345;DHT22;16339;48.748;2.222;2024-03-02T08:04:39;11.00;99.90
29345;DHT22;16339;48.748;2.222;2024-03-02T08:07:08;11.00;99.90
29345;DHT22;16339;48.748;2.222;2024-03-02T08:09:37;11.00;99.90
29345;DHT22;16339;48.748;2.222;2024-03-02T08:12:09;11.00;99.90
29345;DHT22;16339;48.748;2.222;2024-03-02T08:14:40;11.00;99.90
29345;DHT22;16339;48.748;2.222;2024-03-02T08:17:14;11.00;99.90
29345;DHT22;16339;48.748;2.222;2024-03-02T08:19:48;10.90;99.90
29345;DHT22;16339;48.748;2.222;2024-03-02T08:22:20;10.90;99.90
29345;DHT22;16339;48.748;2.222;2024-03-02T08:24:48;10.90;99.90
29345;DHT22;16339;48.748;2.222;2024-03-02T08:27:23;10.90;99.90
29345;DHT22;16339;48.748;2.222;2024-03-02T08:29:57;10.90;99.90
29345;DHT22;16339;48.748;2.222;2024-03-02T08:32:25;11.00;99.90
29345;DHT22;16339;48.748;2.222;2024-03-02T08:34:54;11.00;99.90
29345;DHT22;16339;48.748;2.222;2024-03-02T08:37:23;10.90;99.90
29345;DHT22;16339;48.748;2.222;2024-03-02T08:39:52;10.90;99.90
29345;DHT22;16339;48.748;2.222;2024-03-02T08:42:23;10.80;99.90
29345;DHT22;16339;48.748;2.222;2024-03-02T08:44:52;10.60;99.90
29345;DHT22;16339;48.748;2.222;2024-03-02T08:47:21;10.60;99.90
29345;DHT22;16339;48.748;2.222;2024-03-02T08:49:49;10.70;99.90
29345;DHT22;16339;48.748;2.222;2024-03-02T08:52:21;10.70;99.90
29345;DHT22;16339;48.748;2.222;2024-03-02T08:54:50;10.70;99.90
29345;DHT22;16339;48.748;2.222;2024-03-02T08:57:19;10.80;99.90
29345;DHT22;16339;48.748;2.222;2024-03-02T08:59:50;10.80;99.90
29345;DHT22;16339;48.748;2.222;2024-03-02T09:02:21;10.80;99.90
29345;DHT22;16339;48.748;2.222;2024-03-02T09:04:50;10.80;99.90
29345;DHT22;16339;48.748;2.222;2024-03-02T09:07:22;10.80;99.90
29345;DHT22;16339;48.748;2.222;2024-03-02T09:09:51;10.90;99.90
29345;DHT22;16339;48.748;2.222;2024-03-02T09:12:20;10.90;99.90
29345;DHT22;16339;48.748;2.222;2024-03-02T09:14:54;10.90;99.90
29345;DHT22;16339;48.748;2.222;2024-03-02T09:17:23;10.90;99.90
29345;DHT22;16339;48.748;2.222;2024-03-02T09:19:52;11.00;99.90
29345;DHT22;16339;48.748;2.222;2024-03-02T09:22:20;11.00;99.90
29345;DHT22;16339;48.748;2.222;2024-03-02T09:24:52;10.90;99.90
29345;DHT22;16339;48.748;2.222;2024-03-02T09:27:21;11.00;99.90
29345;DHT22;16339;48.748;2.222;2024-03-02T09:29:52;11.00;99.90
29345;DHT22;16339;48.748;2.222;2024-03-02T09:32:21;11.00;99.90
29345;DHT22;16339;48.748;2.222;2024-03-02T09:34:49;11.00;99.90
29345;DHT22;16339;48.748;2.222;2024-03-02T09:37:19;11.00;99.90
29345;DHT22;16339;48.748;2.222;2024-03-02T09:39:47;11.00;99.90
29345;DHT22;16339;48.748;2.222;2024-03-02T09:42:17;11.10;99.90
29345;DHT22;16339;48.748;2.222;2024-03-02T09:44:47;11.10;99.90
29345;DHT22;16339;48.748;2.222;2024-03-02T09:47:21;11.20;99.90
29345;DHT22;16339;48.748;2.222;2024-03-02T09:49:52;11.20;99.90
29345;DHT22;16339;48.748;2.222;2024-03-02T09:52:32;11.20;99.90
29345;DHT22;16339;48.748;2.222;2024-03-02T09:55:04;11.30;99.90
29345;DHT22;16339;48.748;2.222;2024-03-02T09:57:32;11.30;99.90
29345;DHT22;16339;48.748;2.222;2024-03-02T10:00:01;11.30;99.90
29345;DHT22;16339;48.748;2.222;2024-03-02T10:02:33;11.40;99.90
29345;DHT22;16339;48.748;2.222;2024-03-02T10:05:01;11.40;99.90
29345;DHT22;16339;48.748;2.222;2024-03-02T10:07:33;11.40;99.90
29345;DHT22;16339;48.748;2.222;2024-03-02T10:10:12;11.40;99.90
29345;DHT22;16339;48.748;2.222;2024-03-02T10:12:41;11.50;99.90
29345;DHT22;16339;48.748;2.222;2024-03-02T10:15:10;11.50;99.90
29345;DHT22;16339;48.748;2.222;2024-03-02T10:17:51;11.50;99.90
29345;DHT22;16339;48.748;2.222;2024-03-02T10:20:24;11.50;99.90
29345;DHT22;16339;48.748;2.222;2024-03-02T10:22:54;11.50;99.90
29345;DHT22;16339;48.748;2.222;2024-03-02T10:25:30;11.50;99.90
29345;DHT22;16339;48.748;2.222;2024-03-02T10:28:02;11.60;99.90
29345;DHT22;16339;48.748;2.222;2024-03-02T10:30:32;11.60;99.90
29345;DHT22;16339;48.748;2.222;2024-03-02T10:33:06;11.50;99.90
29345;DHT22;16339;48.748;2.222;2024-03-02T10:35:34;11.60;99.90
29345;DHT22;16339;48.748;2.222;2024-03-02T10:38:04;11.60;99.90
29345;DHT22;16339;48.748;2.222;2024-03-02T10:40:34;11.60;99.90
29345;DHT22;16339;48.748;2.222;2024-03-02T10:43:03;11.50;99.90
29345;DHT22;16339;48.748;2.222;2024-03-02T10:45:33;11.60;99.90
29345;DHT22;16339;48.748;2.222;2024-03-02T10:48:06;11.70;99.90
29345;DHT22;16339;48.748;2.222;2024-03-02T10:50:36;11.60;99.90
29345;DHT22;16339;48.748;2.222;2024-03-02T10:53:04;11.70;99.90
29345;DHT22;16339;48.748;2.222;2024-03-02T10:55:33;11.70;99.90
29345;DHT22;16339;48.748;2.222;2024-03-02T10:58:04;11.70;99.90
29345;DHT22;16339;48.748;2.222;2024-03-02T11:00:34;11.70;99.90
29345;DHT22;16339;48.748;2.222;2024-03-02T11:03:07;11.70;99.90
29345;DHT22;16339;48.748;2.222;2024-03-02T11:05:44;11.70;99.90
29345;DHT22;16339;48.748;2.222;2024-03-02T11:08:13;11.70;99.90
29345;DHT22;16339;48.748;2.222;2024-03-02T11:10:50;11.20;99.90
29345;DHT22;16339;48.748;2.222;2024-03-02T11:13:22;11.00;99.90
29345;DHT22;16339;48.748;2.222;2024-03-02T11:15:56;11.00;99.90
29345;DHT22;16339;48.748;2.222;2024-03-02T11:18:31;11.10;99.90
29345;DHT22;16339;48.748;2.222;2024-03-02T11:21:00;11.30;99.90
29345;DHT22;16339;48.748;2.222;2024-03-02T11:23:34;11.40;99.90
29345;DHT22;16339;48.748;2.222;2024-03-02T11:26:17;11.40;99.90
29345;DHT22;16339;48.748;2.222;2024-03-02T11:28:47;11.60;99.90
29345;DHT22;16339;48.748;2.222;2024-03-02T11:31:17;11.60;99.90
29345;DHT22;16339;48.748;2.222;2024-03-02T11:33:51;11.70;99.90
29345;DHT22;16339;48.748;2.222;2024-03-02T11:36:19;11.80;99.90
29345;DHT22;16339;48.748;2.222;2024-03-02T11:38:48;11.90;99.90
29345;DHT22;16339;48.748;2.222;2024-03-02T11:41:19;11.90;99.90
29345;DHT22;16339;48.748;2.222;2024-03-02T11:43:48;12.00;99.90
29345;DHT22;16339;48.748;2.222;2024-03-02T11:46:17;12.00;99.90
29345;DHT22;16339;48.748;2.222;2024-03-02T11:48:46;11.90;99.90
29345;DHT22;16339;48.748;2.222;2024-03-02T11:51:22;12.00;99.90
29345;DHT22;16339;48.748;2.222;2024-03-02T11:54:08;12.00;99.90
29345;DHT22;16339;48.748;2.222;2024-03-02T11:56:48;11.90;99.90
29345;DHT22;16339;48.748;2.222;2024-03-02T11:59:17;12.00;99.90
29345;DHT22;16339;48.748;2.222;2024-03-02T12:02:03;12.10;99.90
29345;DHT22;16339;48.748;2.222;2024-03-02T12:04:32;12.20;99.90
29345;DHT22;16339;48.748;2.222;2024-03-02T12:07:06;12.20;99.90
29345;DHT22;16339;48.748;2.222;2024-03-02T12:09:42;12.20;99.90
29345;DHT22;16339;48.748;2.222;2024-03-02T12:12:14;11.80;99.90
29345;DHT22;16339;48.748;2.222;2024-03-02T12:14:51;11.90;99.90
29345;DHT22;16339;48.748;2.222;2024-03-02T12:17:21;12.00;99.90
29345;DHT22;16339;48.748;2.222;2024-03-02T12:19:50;12.00;99.90
29345;DHT22;16339;48.748;2.222;2024-03-02T12:22:22;12.00;99.90
29345;DHT22;16339;48.748;2.222;2024-03-02T12:24:50;12.00;99.90
29345;DHT22;16339;48.748;2.222;2024-03-02T12:27:19;12.10;99.90
29345;DHT22;16339;48.748;2.222;2024-03-02T12:29:48;12.10;99.90
29345;DHT22;16339;48.748;2.222;2024-03-02T12:32:17;12.20;99.90
29345;DHT22;16339;48.748;2.222;2024-03-02T12:34:50;12.00;99.90
29345;DHT22;16339;48.748;2.222;2024-03-02T12:37:30;12.00;99.90
29345;DHT22;16339;48.748;2.222;2024-03-02T12:39:59;12.10;99.90
29345;DHT22;16339;48.748;2.222;2024-03-02T12:42:28;11.90;99.90
29345;DHT22;16339;48.748;2.222;2024-03-02T12:44:57;11.90;99.90
29345;DHT22;16339;48.748;2.222;2024-03-02T12:47:26;11.60;99.90
29345;DHT22;16339;48.748;2.222;2024-03-02T12:49:55;11.80;99.90
29345;DHT22;16339;48.748;2.222;2024-03-02T12:52:27;11.90;99.90
29345;DHT22;16339;48.748;2.222;2024-03-02T12:54:58;12.00;99.90
29345;DHT22;16339;48.748;2.222;2024-03-02T12:57:29;12.10;99.90
29345;DHT22;16339;48.748;2.222;2024-03-02T13:00:01;12.20;99.90
29345;DHT22;16339;48.748;2.222;2024-03-02T13:02:40;12.00;99.90
29345;DHT22;16339;48.748;2.222;2024-03-02T13:05:09;12.00;99.90
29345;DHT22;16339;48.748;2.222;2024-03-02T13:07:41;12.10;99.90
29345;DHT22;16339;48.748;2.222;2024-03-02T13:10:12;12.10;99.90
29345;DHT22;16339;48.748;2.222;2024-03-02T13:12:44;12.10;99.90
29345;DHT22;16339;48.748;2.222;2024-03-02T13:15:13;12.10;99.90
29345;DHT22;16339;48.748;2.222;2024-03-02T13:17:44;12.10;99.90
29345;DHT22;16339;48.748;2.222;2024-03-02T13:20:15;12.00;99.90
29345;DHT22;16339;48.748;2.222;2024-03-02T13:22:47;12.00;99.90
29345;DHT22;16339;48.748;2.222;2024-03-02T13:25:18;12.10;99.90
29345;DHT22;16339;48.748;2.222;2024-03-02T13:27:47;12.20;99.90
29345;DHT22;16339;48.748;2.222;2024-03-02T13:30:16;12.10;99.90
29345;DHT22;16339;48.748;2.222;2024-03-02T13:32:45;12.20;99.90
29345;DHT22;16339;48.748;2.222;2024-03-02T13:35:14;12.20;99.90
29345;DHT22;16339;48.748;2.222;2024-03-02T13:37:43;12.20;99.90
29345;DHT22;16339;48.748;2.222;2024-03-02T13:40:14;12.30;99.90
29345;DHT22;16339;48.748;2.222;2024-03-02T13:42:45;12.30;99.90
29345;DHT22;16339;48.748;2.222;2024-03-02T13:45:15;12.30;99.90
29345;DHT22;16339;48.748;2.222;2024-03-02T13:47:44;12.30;99.90
29345;DHT22;16339;48.748;2.222;2024-03-02T13:50:13;12.30;99.90
29345;DHT22;16339;48.748;2.222;2024-03-02T13:52:47;12.30;99.90
29345;DHT22;16339;48.748;2.222;2024-03-02T13:55:29;12.30;99.90
29345;DHT22;16339;48.748;2.222;2024-03-02T13:57:57;12.30;99.90
29345;DHT22;16339;48.748;2.222;2024-03-02T14:00:26;12.30;99.90
29345;DHT22;16339;48.748;2.222;2024-03-02T14:02:55;12.30;99.90
29345;DHT22;16339;48.748;2.222;2024-03-02T14:05:24;12.20;99.90
29345;DHT22;16339;48.748;2.222;2024-03-02T14:07:53;12.20;99.90
29345;DHT22;16339;48.748;2.222;2024-03-02T14:10:24;12.20;99.90
29345;DHT22;16339;48.748;2.222;2024-03-02T14:12:53;12.20;99.90
29345;DHT22;16339;48.748;2.222;2024-03-02T14:15:23;12.10;99.90
29345;DHT22;16339;48.748;2.222;2024-03-02T14:17:51;12.10;99.90
29345;DHT22;16339;48.748;2.222;2024-03-02T14:20:20;12.10;99.90
29345;DHT22;16339;48.748;2.222;2024-03-02T14:22:50;12.10;99.90
29345;DHT22;16339;48.748;2.222;2024-03-02T14:25:18;12.00;99.90
29345;DHT22;16339;48.748;2.222;2024-03-02T14:27:51;12.00;99.90
29345;DHT22;16339;48.748;2.222;2024-03-02T14:30:22;11.80;99.90
29345;DHT22;16339;48.748;2.222;2024-03-02T14:32:51;11.80;99.90
29345;DHT22;16339;48.748;2.222;2024-03-02T14:35:19;11.90;99.90
29345;DHT22;16339;48.748;2.222;2024-03-02T14:37:48;11.80;99.90
29345;DHT22;16339;48.748;2.222;2024-03-02T14:40:17;11.90;99.90
29345;DHT22;16339;48.748;2.222;2024-03-02T14:42:49;12.00;99.90
29345;DHT22;16339;48.748;2.222;2024-03-02T14:45:18;11.90;99.90
29345;DHT22;16339;48.748;2.222;2024-03-02T14:47:47;11.90;99.90
29345;DHT22;16339;48.748;2.222;2024-03-02T14:50:16;11.90;99.90
29345;DHT22;16339;48.748;2.222;2024-03-02T14:52:45;12.00;99.90
29345;DHT22;16339;48.748;2.222;2024-03-02T14:55:15;12.00;99.90
29345;DHT22;16339;48.748;2.222;2024-03-02T14:57:52;12.00;99.90
29345;DHT22;16339;48.748;2.222;2024-03-02T15:00:21;12.00;99.90
29345;DHT22;16339;48.748;2.222;2024-03-02T15:02:57;12.10;99.90
29345;DHT22;16339;48.748;2.222;2024-03-02T15:05:26;12.20;99.90
29345;DHT22;16339;48.748;2.222;2024-03-02T15:07:55;12.10;99.90
29345;DHT22;16339;48.748;2.222;2024-03-02T15:10:25;12.20;99.90
29345;DHT22;16339;48.748;2.222;2024-03-02T15:12:57;12.10;99.90
29345;DHT22;16339;48.748;2.222;2024-03-02T15:15:26;12.10;99.90
29345;DHT22;16339;48.748;2.222;2024-03-02T15:17:56;12.20;99.90
29345;DHT22;16339;48.748;2.222;2024-03-02T15:20:29;12.20;99.90
29345;DHT22;16339;48.748;2.222;2024-03-02T15:22:59;12.20;99.90
29345;DHT22;16339;48.748;2.222;2024-03-02T15:25:31;12.20;99.90
29345;DHT22;16339;48.748;2.222;2024-03-02T15:28:09;12.20;99.90
29345;DHT22;16339;48.748;2.222;2024-03-02T15:30:43;12.20;99.90
29345;DHT22;16339;48.748;2.222;2024-03-02T15:33:12;12.20;99.90
29345;DHT22;16339;48.748;2.222;2024-03-02T15:35:49;12.20;99.90
29345;DHT22;16339;48.748;2.222;2024-03-02T15:38:18;12.20;99.90
29345;DHT22;16339;48.748;2.222;2024-03-02T15:40:47;12.20;99.90
29345;DHT22;16339;48.748;2.222;2024-03-02T15:43:19;12.30;99.90
29345;DHT22;16339;48.748;2.222;2024-03-02T15:45:49;12.20;99.90
29345;DHT22;16339;48.748;2.222;2024-03-02T15:48:25;12.10;99.90
29345;DHT22;16339;48.748;2.222;2024-03-02T15:51:00;12.10;99.90
29345;DHT22;16339;48.748;2.222;2024-03-02T15:53:31;12.20;99.90
29345;DHT22;16339;48.748;2.222;2024-03-02T15:56:04;12.00;99.90
29345;DHT22;16339;48.748;2.222;2024-03-02T15:58:38;12.00;99.90
29345;DHT22;16339;48.748;2.222;2024-03-02T16:01:06;12.00;99.90
29345;DHT22;16339;48.748;2.222;2024-03-02T16:03:48;11.70;99.90
29345;DHT22;16339;48.748;2.222;2024-03-02T16:06:36;11.20;99.90
29345;DHT22;16339;48.748;2.222;2024-03-02T16:09:09;11.10;99.90
29345;DHT22;16339;48.748;2.222;2024-03-02T16:11:44;11.00;99.90